createdAt,value
2019-01-09T00:33:05.492Z,-6.6
2019-01-09T00:33:55.540Z,-6.5
2019-01-09T00:34:46.115Z,-6.5
2019-01-09T00:35:39.438Z,-6.5
2019-01-09T00:36:26.215Z,-6.5
2019-01-09T00:37:15.997Z,-6.5
2019-01-09T00:38:05.785Z,-6.5
2019-01-09T00:38:56.124Z,-6.4
2019-01-09T00:39:45.902Z,-6.4
2019-01-09T00:40:36.212Z,-6.4
2019-01-09T00:41:26.627Z,-6.4
2019-01-09T00:42:16.397Z,-6.4
2019-01-09T00:43:06.389Z,-6.4
2019-01-09T00:43:56.714Z,-6.4
2019-01-09T00:44:46.775Z,-6.4
2019-01-09T00:45:36.559Z,-6.4
2019-01-09T00:46:26.899Z,-6.4
2019-01-09T00:47:16.664Z,-6.4
2019-01-09T00:48:07.005Z,-6.3
2019-01-09T00:48:56.511Z,-6.3
2019-01-09T00:49:46.858Z,-6.3
2019-01-09T00:50:36.354Z,-6.3
2019-01-09T00:51:26.676Z,-6.3
2019-01-09T00:52:17.276Z,-6.3
2019-01-09T00:53:07.348Z,-6.3
2019-01-09T00:53:57.114Z,-6.3
2019-01-09T00:54:47.178Z,-6.2
2019-01-09T00:55:36.974Z,-6.2
2019-01-09T00:56:27.284Z,-6.2
2019-01-09T00:57:17.350Z,-6.2
2019-01-09T00:58:07.668Z,-6.2
2019-01-09T00:58:57.168Z,-6.1
2019-01-09T00:59:47.249Z,-6.2
2019-01-09T01:00:37.559Z,-6.1
2019-01-09T01:01:27.884Z,-6.1
2019-01-09T01:02:18.046Z,-6.1
2019-01-09T01:03:07.823Z,-6.1
2019-01-09T01:03:57.913Z,-6.1
2019-01-09T01:04:47.841Z,-6.1
2019-01-09T01:05:46.819Z,-6.1
2019-01-09T01:06:27.671Z,-6.1
2019-01-09T01:07:17.745Z,-6
2019-01-09T01:08:08.081Z,-6
2019-01-09T01:08:58.128Z,-6
2019-01-09T01:09:48.461Z,-6
2019-01-09T01:10:38.508Z,-6
2019-01-09T01:11:28.298Z,-6
2019-01-09T01:12:18.358Z,-5.9
2019-01-09T01:13:08.433Z,-5.9
2019-01-09T01:13:58.732Z,-5.9
2019-01-09T01:14:48.506Z,-5.9
2019-01-09T01:15:38.847Z,-5.9
2019-01-09T01:16:28.629Z,-5.9
2019-01-09T01:17:18.429Z,-5.9
2019-01-09T01:18:09.108Z,-5.9
2019-01-09T01:18:58.800Z,-5.9
2019-01-09T01:19:49.192Z,-5.9
2019-01-09T01:20:39.190Z,-5.9
2019-01-09T01:21:28.970Z,-5.9
2019-01-09T01:22:18.740Z,-5.9
2019-01-09T01:23:09.089Z,-5.9
2019-01-09T01:23:58.857Z,-5.8
2019-01-09T01:24:49.479Z,-5.8
2019-01-09T01:25:39.514Z,-5.8
2019-01-09T01:26:29.039Z,-5.8
2019-01-09T01:27:19.357Z,-5.8
2019-01-09T01:28:09.689Z,-5.8
2019-01-09T01:28:59.195Z,-5.8
2019-01-09T01:29:49.802Z,-5.8
2019-01-09T01:30:39.579Z,-5.8
2019-01-09T01:31:29.921Z,-5.8
2019-01-09T01:32:19.955Z,-5.8
2019-01-09T01:33:09.766Z,-5.8
2019-01-09T01:34:00.082Z,-5.8
2019-01-09T01:34:50.181Z,-5.8
2019-01-09T01:35:40.187Z,-5.7
2019-01-09T01:36:29.694Z,-5.7
2019-01-09T01:37:20.036Z,-5.7
2019-01-09T01:38:10.089Z,-5.7
2019-01-09T01:38:59.871Z,-5.7
2019-01-09T01:39:50.474Z,-5.7
2019-01-09T01:40:40.526Z,-5.7
2019-01-09T01:41:30.594Z,-5.6
2019-01-09T01:42:20.646Z,-5.6
2019-01-09T01:43:10.428Z,-5.6
2019-01-09T01:44:00.760Z,-5.6
2019-01-09T01:44:50.798Z,-5.6
2019-01-09T01:45:40.576Z,-5.6
2019-01-09T01:46:30.374Z,-5.6
2019-01-09T01:47:20.688Z,-5.6
2019-01-09T01:48:10.751Z,-5.6
2019-01-09T01:49:00.823Z,-5.6
2019-01-09T01:49:51.161Z,-5.6
2019-01-09T01:50:40.936Z,-5.6
2019-01-09T01:51:30.984Z,-5.6
2019-01-09T01:52:21.311Z,-5.6
2019-01-09T01:53:11.364Z,-5.6
2019-01-09T01:54:00.960Z,-5.5
2019-01-09T01:54:51.491Z,-5.5
2019-01-09T01:55:41.538Z,-5.5
2019-01-09T01:56:31.355Z,-5.5
2019-01-09T01:57:21.368Z,-5.5
2019-01-09T01:58:11.165Z,-5.5
2019-01-09T01:59:01.853Z,-5.5
2019-01-09T01:59:51.811Z,-5.5
2019-01-09T02:00:41.602Z,-5.4
2019-01-09T02:01:31.930Z,-5.4
2019-01-09T02:02:21.817Z,-5.4
2019-01-09T02:03:11.495Z,-5.4
2019-01-09T02:04:02.092Z,-5.4
2019-01-09T02:04:52.145Z,-5.4
2019-01-09T02:05:42.197Z,-5.4
2019-01-09T02:06:31.980Z,-5.4
2019-01-09T02:07:22.037Z,-5.4
2019-01-09T02:08:12.365Z,-5.4
2019-01-09T02:09:02.422Z,-5.4
2019-01-09T02:09:52.488Z,-5.4
2019-01-09T02:10:42.539Z,-5.4
2019-01-09T02:11:32.051Z,-5.4
2019-01-09T02:12:22.644Z,-5.4
2019-01-09T02:13:12.149Z,-5.4
2019-01-09T02:14:02.762Z,-5.4
2019-01-09T02:14:52.549Z,-5.4
2019-01-09T02:15:42.887Z,-5.4
2019-01-09T02:16:32.934Z,-5.4
2019-01-09T02:17:22.708Z,-5.4
2019-01-09T02:18:12.514Z,-5.4
2019-01-09T02:19:03.104Z,-5.4
2019-01-09T02:19:52.609Z,-5.4
2019-01-09T02:20:42.931Z,-5.4
2019-01-09T02:21:33.286Z,-5.4
2019-01-09T02:22:23.316Z,-5.4
2019-01-09T02:23:13.099Z,-5.4
2019-01-09T02:24:03.443Z,-5.4
2019-01-09T02:24:53.589Z,-5.4
2019-01-09T02:25:42.993Z,-5.4
2019-01-09T02:26:33.606Z,-5.4
2019-01-09T02:27:23.656Z,-5.4
2019-01-09T02:28:13.718Z,-5.4
2019-01-09T02:29:03.771Z,-5.4
2019-01-09T02:29:53.556Z,-5.4
2019-01-09T02:30:43.607Z,-5.4
2019-01-09T02:31:33.943Z,-5.4
2019-01-09T02:32:23.728Z,-5.4
2019-01-09T02:33:13.768Z,-5.4
2019-01-09T02:34:04.151Z,-5.4
2019-01-09T02:34:53.903Z,-5.4
2019-01-09T02:35:43.973Z,-5.4
2019-01-09T02:36:34.005Z,-5.4
2019-01-09T02:37:24.089Z,-5.4
2019-01-09T02:38:14.130Z,-5.4
2019-01-09T02:39:04.473Z,-5.4
2019-01-09T02:39:54.517Z,-5.4
2019-01-09T02:40:44.566Z,-5.4
2019-01-09T02:41:34.608Z,-5.4
2019-01-09T02:42:24.672Z,-5.4
2019-01-09T02:43:14.444Z,-5.4
2019-01-09T02:44:04.791Z,-5.4
2019-01-09T02:44:54.852Z,-5.4
2019-01-09T02:45:44.624Z,-5.4
2019-01-09T02:46:34.701Z,-5.4
2019-01-09T02:47:25.028Z,-5.4
2019-01-09T02:48:14.533Z,-5.4
2019-01-09T02:49:05.146Z,-5.4
2019-01-09T02:49:54.622Z,-5.4
2019-01-09T02:50:45.356Z,-5.5
2019-01-09T02:51:34.728Z,-5.5
2019-01-09T02:52:25.107Z,-5.5
2019-01-09T02:53:15.407Z,-5.5
2019-01-09T02:54:05.195Z,-5.5
2019-01-09T02:54:55.527Z,-5.5
2019-01-09T02:55:45.623Z,-5.5
2019-01-09T02:56:35.351Z,-5.5
2019-01-09T02:57:26.384Z,-5.5
2019-01-09T02:58:15.734Z,-5.6
2019-01-09T02:59:05.538Z,-5.6
2019-01-09T02:59:55.847Z,-5.6
2019-01-09T03:00:45.627Z,-5.6
2019-01-09T03:01:35.764Z,-5.6
2019-01-09T03:02:25.767Z,-5.6
2019-01-09T03:03:15.797Z,-5.6
2019-01-09T03:04:05.888Z,-5.7
2019-01-09T03:04:56.179Z,-5.7
2019-01-09T03:05:46.238Z,-5.7
2019-01-09T03:06:36.306Z,-5.7
2019-01-09T03:07:26.371Z,-5.8
2019-01-09T03:08:16.557Z,-5.8
2019-01-09T03:09:06.456Z,-5.8
2019-01-09T03:09:56.254Z,-5.8
2019-01-09T03:10:46.578Z,-5.8
2019-01-09T03:11:36.351Z,-5.8
2019-01-09T03:12:26.403Z,-5.8
2019-01-09T03:13:16.473Z,-5.8
2019-01-09T03:14:06.567Z,-5.8
2019-01-09T03:14:56.321Z,-5.8
2019-01-09T03:15:46.713Z,-5.8
2019-01-09T03:16:36.975Z,-5.8
2019-01-09T03:17:26.181Z,-5.8
2019-01-09T03:18:16.255Z,-5.8
2019-01-09T03:19:06.859Z,-5.8
2019-01-09T03:19:57.203Z,-5.8
2019-01-09T03:20:47.063Z,-5.8
2019-01-09T03:21:37.026Z,-5.8
2019-01-09T03:22:27.077Z,-5.8
2019-01-09T03:23:17.155Z,-5.8
2019-01-09T03:24:07.331Z,-5.8
2019-01-09T03:24:57.055Z,-5.8
2019-01-09T03:25:47.325Z,-5.8
2019-01-09T03:26:37.448Z,-5.8
2019-01-09T03:27:26.879Z,-5.8
2019-01-09T03:28:17.478Z,-5.8
2019-01-09T03:29:07.532Z,-5.8
2019-01-09T03:29:57.585Z,-5.8
2019-01-09T03:30:47.437Z,-5.8
2019-01-09T03:31:37.468Z,-5.8
2019-01-09T03:32:28.205Z,-5.8
2019-01-09T03:33:18.084Z,-5.8
2019-01-09T03:34:08.132Z,-5.8
2019-01-09T03:34:58.187Z,-5.8
2019-01-09T03:35:48.252Z,-5.8
2019-01-09T03:36:37.484Z,-5.8
2019-01-09T03:37:28.098Z,-5.8
2019-01-09T03:38:17.866Z,-5.8
2019-01-09T03:39:07.949Z,-5.8
2019-01-09T03:39:58.249Z,-5.8
2019-01-09T03:40:48.601Z,-5.8
2019-01-09T03:41:38.352Z,-5.8
2019-01-09T03:42:28.696Z,-5.8
2019-01-09T03:43:18.524Z,-5.8
2019-01-09T03:44:07.998Z,-5.8
2019-01-09T03:44:58.599Z,-5.8
2019-01-09T03:45:48.914Z,-5.8
2019-01-09T03:46:39.134Z,-5.8
2019-01-09T03:47:28.756Z,-5.8
2019-01-09T03:48:18.802Z,-5.8
2019-01-09T03:49:09.129Z,-5.8
2019-01-09T03:49:58.381Z,-5.8
2019-01-09T03:50:48.695Z,-5.8
2019-01-09T03:51:38.751Z,-5.8
2019-01-09T03:52:29.449Z,-5.8
2019-01-09T03:53:19.420Z,-5.8
2019-01-09T03:54:09.206Z,-5.8
2019-01-09T03:54:59.571Z,-5.8
2019-01-09T03:55:49.317Z,-5.8
2019-01-09T03:56:39.370Z,-5.8
2019-01-09T03:57:29.717Z,-5.8
2019-01-09T03:58:19.192Z,-5.8
2019-01-09T03:59:09.938Z,-5.8
2019-01-09T03:59:59.602Z,-5.8
2019-01-09T04:00:49.924Z,-5.8
2019-01-09T04:01:39.976Z,-5.8
2019-01-09T04:02:29.762Z,-5.8
2019-01-09T04:03:19.670Z,-5.8
2019-01-09T04:04:10.150Z,-5.7
2019-01-09T04:05:00.276Z,-5.7
2019-01-09T04:05:50.258Z,-5.7
2019-01-09T04:06:43.191Z,-5.7
2019-01-09T04:07:29.556Z,-5.7
2019-01-09T04:08:20.412Z,-5.7
2019-01-09T04:09:10.215Z,-5.7
2019-01-09T04:10:00.669Z,-5.7
2019-01-09T04:10:50.402Z,-5.7
2019-01-09T04:11:39.817Z,-5.7
2019-01-09T04:12:30.144Z,-5.7
2019-01-09T04:13:20.217Z,-5.7
2019-01-09T04:14:10.532Z,-5.7
2019-01-09T04:15:01.033Z,-5.7
2019-01-09T04:15:50.382Z,-5.7
2019-01-09T04:16:40.995Z,-5.7
2019-01-09T04:17:30.809Z,-5.7
2019-01-09T04:18:21.094Z,-5.7
2019-01-09T04:19:11.164Z,-5.7
2019-01-09T04:20:00.655Z,-5.6
2019-01-09T04:20:50.977Z,-5.6
2019-01-09T04:21:41.039Z,-5.6
2019-01-09T04:22:31.378Z,-5.6
2019-01-09T04:23:21.433Z,-5.6
2019-01-09T04:24:11.489Z,-5.6
2019-01-09T04:25:01.464Z,-5.6
2019-01-09T04:25:51.384Z,-5.6
2019-01-09T04:26:41.371Z,-5.6
2019-01-09T04:27:31.163Z,-5.6
2019-01-09T04:28:21.498Z,-5.6
2019-01-09T04:29:11.826Z,-5.6
2019-01-09T04:30:01.901Z,-5.6
2019-01-09T04:30:51.984Z,-5.6
2019-01-09T04:31:41.803Z,-5.6
2019-01-09T04:32:31.772Z,-5.6
2019-01-09T04:33:22.237Z,-5.6
2019-01-09T04:34:11.888Z,-5.6
2019-01-09T04:35:01.997Z,-5.6
2019-01-09T04:35:52.043Z,-5.5
2019-01-09T04:36:52.062Z,-5.5
2019-01-09T04:37:32.366Z,-5.5
2019-01-09T04:38:21.919Z,-5.5
2019-01-09T04:39:11.930Z,-5.5
2019-01-09T04:40:02.383Z,-5.5
2019-01-09T04:40:51.779Z,-5.5
2019-01-09T04:41:41.813Z,-5.5
2019-01-09T04:42:32.445Z,-5.5
2019-01-09T04:43:22.492Z,-5.5
2019-01-09T04:44:12.535Z,-5.5
2019-01-09T04:45:02.643Z,-5.5
2019-01-09T05:02:23.074Z,-5.4
2019-01-09T05:03:13.125Z,-5.4
2019-01-09T05:04:03.182Z,-5.4
2019-01-09T05:04:52.691Z,-5.4
2019-01-09T05:05:43.373Z,-5.4
2019-01-09T05:06:33.624Z,-5.4
2019-01-09T05:07:23.670Z,-5.4
2019-01-09T05:08:12.893Z,-5.4
2019-01-09T05:09:03.782Z,-5.4
2019-01-09T05:09:55.478Z,-5.4
2019-01-09T05:10:43.616Z,-5.4
2019-01-09T05:11:33.944Z,-5.4
2019-01-09T05:12:23.997Z,-5.4
2019-01-09T05:13:13.761Z,-5.4
2019-01-09T05:14:03.833Z,-5.4
2019-01-09T05:14:53.883Z,-5.4
2019-01-09T05:15:44.219Z,-5.4
2019-01-09T05:16:34.283Z,-5.4
2019-01-09T05:17:24.096Z,-5.4
2019-01-09T05:18:14.468Z,-5.4
2019-01-09T05:19:04.436Z,-5.4
2019-01-09T05:19:53.683Z,-5.4
2019-01-09T05:20:44.335Z,-5.4
2019-01-09T05:21:34.336Z,-5.4
2019-01-09T05:22:24.388Z,-5.4
2019-01-09T05:23:14.452Z,-5.4
2019-01-09T05:24:04.264Z,-5.4
2019-01-09T05:24:54.553Z,-5.4
2019-01-09T05:25:44.904Z,-5.4
2019-01-09T05:26:34.669Z,-5.4
2019-01-09T05:27:24.999Z,-5.4
2019-01-09T05:28:15.050Z,-5.4
2019-01-09T05:29:05.127Z,-5.4
2019-01-09T05:29:54.873Z,-5.4
2019-01-09T05:30:44.949Z,-5.4
2019-01-09T05:31:35.015Z,-5.4
2019-01-09T05:32:25.333Z,-5.4
2019-01-09T05:33:15.391Z,-5.4
2019-01-09T05:34:05.167Z,-5.4
2019-01-09T05:34:55.497Z,-5.4
2019-01-09T05:35:45.559Z,-5.4
2019-01-09T05:36:35.340Z,-5.4
2019-01-09T05:37:25.409Z,-5.4
2019-01-09T05:38:15.737Z,-5.4
2019-01-09T05:39:05.862Z,-5.3
2019-01-09T05:39:55.544Z,-5.3
2019-01-09T05:40:45.880Z,-5.4
2019-01-09T05:41:35.654Z,-5.4
2019-01-09T05:42:26.009Z,-5.4
2019-01-09T05:43:16.044Z,-5.3
2019-01-09T05:44:05.869Z,-5.3
2019-01-09T05:44:58.335Z,-5.3
2019-01-09T05:45:45.682Z,-5.3
2019-01-09T05:46:36.266Z,-5.3
2019-01-09T05:47:26.064Z,-5.3
2019-01-09T05:48:16.134Z,-5.3
2019-01-09T05:49:06.462Z,-5.3
2019-01-09T05:49:56.234Z,-5.3
2019-01-09T05:50:46.577Z,-5.3
2019-01-09T05:51:36.613Z,-5.3
2019-01-09T05:52:26.458Z,-5.3
2019-01-09T05:53:16.152Z,-5.4
2019-01-09T05:54:06.771Z,-5.4
2019-01-09T05:54:56.283Z,-5.4
2019-01-09T05:55:46.619Z,-5.4
2019-01-09T05:56:36.655Z,-5.4
2019-01-09T05:57:26.988Z,-5.4
2019-01-09T05:58:17.036Z,-5.4
2019-01-09T05:59:07.100Z,-5.4
2019-01-09T05:59:56.886Z,-5.5
2019-01-09T06:00:47.217Z,-5.5
2019-01-09T06:01:36.998Z,-5.5
2019-01-09T06:02:28.909Z,-5.5
2019-01-09T06:03:17.375Z,-5.6
2019-01-09T06:04:07.440Z,-5.6
2019-01-09T06:04:57.221Z,-5.6
2019-01-09T06:05:47.273Z,-5.6
2019-01-09T06:06:37.053Z,-5.6
2019-01-09T06:07:27.380Z,-5.6
2019-01-09T06:08:17.715Z,-5.6
2019-01-09T06:09:07.782Z,-5.7
2019-01-09T06:09:57.567Z,-5.7
2019-01-09T06:10:47.620Z,-5.7
2019-01-09T06:11:37.393Z,-5.7
2019-01-09T06:12:27.447Z,-5.8
2019-01-09T06:13:18.042Z,-5.8
2019-01-09T06:14:08.105Z,-5.8
2019-01-09T06:14:58.152Z,-5.8
2019-01-09T06:15:48.202Z,-5.8
2019-01-09T06:16:38.000Z,-5.8
2019-01-09T06:17:28.047Z,-5.8
2019-01-09T06:18:18.097Z,-5.8
2019-01-09T06:19:07.623Z,-5.8
2019-01-09T06:19:58.575Z,-5.8
2019-01-09T06:20:48.547Z,-5.8
2019-01-09T06:21:38.336Z,-5.9
2019-01-09T06:22:28.649Z,-5.9
2019-01-09T06:23:18.699Z,-5.9
2019-01-09T06:24:08.484Z,-5.9
2019-01-09T06:24:58.559Z,-5.9
2019-01-09T06:25:48.925Z,-5.9
2019-01-09T06:26:39.032Z,-5.9
2019-01-09T06:27:29.006Z,-5.9
2019-01-09T06:28:19.129Z,-5.9
2019-01-09T06:29:09.096Z,-5.9
2019-01-09T06:29:58.879Z,-5.8
2019-01-09T06:30:49.196Z,-5.8
2019-01-09T06:31:39.266Z,-5.8
2019-01-09T06:32:29.302Z,-5.8
2019-01-09T06:33:19.385Z,-5.8
2019-01-09T06:34:09.189Z,-5.8
2019-01-09T06:34:59.497Z,-5.8
2019-01-09T06:35:49.129Z,-5.8
2019-01-09T06:36:39.611Z,-5.7
2019-01-09T06:37:29.891Z,-5.7
2019-01-09T06:38:19.439Z,-5.6
2019-01-09T06:39:09.755Z,-5.6
2019-01-09T06:39:59.800Z,-5.6
2019-01-09T06:40:49.926Z,-5.6
2019-01-09T06:41:39.656Z,-5.5
2019-01-09T06:42:29.435Z,-5.4
2019-01-09T06:43:20.046Z,-5.4
2019-01-09T06:44:10.156Z,-5.3
2019-01-09T06:44:59.583Z,-5.3
2019-01-09T06:45:49.939Z,-5.3
2019-01-09T06:46:39.710Z,-5.1
2019-01-09T06:47:30.039Z,-5.1
2019-01-09T06:48:20.473Z,-4.9
2019-01-09T06:49:10.133Z,-4.9
2019-01-09T06:49:59.925Z,-4.8
2019-01-09T06:50:50.630Z,-4.6
2019-01-09T06:51:40.380Z,-4.5
2019-01-09T06:52:30.635Z,-4.4
2019-01-09T06:53:20.714Z,-4.2
2019-01-09T06:54:10.418Z,-4
2019-01-09T06:55:01.179Z,-3.8
2019-01-09T06:55:50.996Z,-3.6
2019-01-09T06:56:40.641Z,-3.4
2019-01-09T06:57:30.708Z,-3.2
2019-01-09T06:58:21.993Z,-2.9
2019-01-09T06:59:10.525Z,-2.7
2019-01-09T07:00:00.888Z,-2.4
2019-01-09T07:00:50.631Z,-2.2
2019-01-09T07:01:40.983Z,-1.9
2019-01-09T07:02:30.753Z,-1.6
2019-01-09T07:03:21.371Z,-1.3
2019-01-09T07:05:01.188Z,-0.6
2019-01-09T07:05:51.110Z,-0.3
2019-01-09T07:06:41.583Z,0.1
2019-01-09T07:07:38.016Z,0.6
2019-01-09T07:08:21.143Z,1.1
2019-01-09T07:09:11.758Z,1.4
2019-01-09T07:10:03.064Z,1.9
2019-01-09T07:10:51.870Z,2.4
2019-01-09T07:11:41.360Z,2.9
2019-01-09T07:12:31.712Z,3.4
2019-01-09T07:13:21.760Z,4.1
2019-01-09T07:14:11.799Z,4.6
2019-01-09T07:15:11.035Z,5.3
2019-01-09T07:15:51.920Z,6
2019-01-09T07:16:42.352Z,6.6
2019-01-09T07:17:32.302Z,7.1
2019-01-09T07:18:22.372Z,7.8
2019-01-09T07:19:12.419Z,8.3
2019-01-09T07:20:02.584Z,8.8
2019-01-09T07:20:52.519Z,9.3
2019-01-09T07:21:47.562Z,9.7
2019-01-09T07:22:32.382Z,10.1
2019-01-09T07:23:22.417Z,10.4
2019-01-09T07:24:12.474Z,10.9
2019-01-09T07:25:02.839Z,11.2
2019-01-09T07:25:52.874Z,11.5
2019-01-09T07:26:42.934Z,11.8
2019-01-09T07:27:32.714Z,12
2019-01-09T07:28:22.763Z,12.3
2019-01-09T07:29:12.806Z,12.6
2019-01-09T07:30:03.190Z,12.9
2019-01-09T07:30:53.201Z,13.3
2019-01-09T07:31:43.246Z,13.7
2019-01-09T07:32:33.029Z,14
2019-01-09T07:33:23.378Z,14.4
2019-01-09T07:34:13.154Z,14.8
2019-01-09T07:35:03.305Z,15.1
2019-01-09T07:35:53.253Z,15.5
2019-01-09T07:36:43.402Z,15.8
2019-01-09T07:37:33.363Z,16.2
2019-01-09T07:38:23.709Z,16.8
2019-01-09T07:39:13.753Z,17.1
2019-01-09T07:40:03.551Z,17.6
2019-01-09T07:40:53.881Z,18
2019-01-09T07:41:43.911Z,18.4
2019-01-09T07:42:33.983Z,18.9
2019-01-09T07:43:24.043Z,19.3
2019-01-09T07:44:13.840Z,19.6
2019-01-09T07:45:04.163Z,19.7
2019-01-09T07:45:54.215Z,19.8
2019-01-09T07:46:43.986Z,19.8
2019-01-09T07:47:34.313Z,19.7
2019-01-09T07:48:24.113Z,19.6
2019-01-09T07:49:14.157Z,19.5
2019-01-09T07:50:04.493Z,19.4
2019-01-09T07:50:54.547Z,19.2
2019-01-09T07:51:44.332Z,19.1
2019-01-09T07:52:34.655Z,18.9
2019-01-09T07:54:14.498Z,18.6
2019-01-09T07:55:04.570Z,18.4
2019-01-09T07:55:54.602Z,18.3
2019-01-09T07:56:44.382Z,18.1
2019-01-09T07:57:34.187Z,17.9
2019-01-09T07:58:24.783Z,17.7
2019-01-09T07:59:15.352Z,17.5
2019-01-09T08:00:05.167Z,17.3
2019-01-09T08:00:54.392Z,17.1
2019-01-09T08:01:44.999Z,16.9
2019-01-09T08:02:35.142Z,16.7
2019-01-09T08:03:25.102Z,16.4
2019-01-09T08:04:15.163Z,16.3
2019-01-09T08:05:05.234Z,16.1
2019-01-09T08:05:55.282Z,15.9
2019-01-09T08:06:45.609Z,15.7
2019-01-09T08:07:35.391Z,15.5
2019-01-09T08:08:25.451Z,15.3
2019-01-09T08:09:15.542Z,15.1
2019-01-09T08:10:05.295Z,14.9
2019-01-09T08:10:55.904Z,14.8
2019-01-09T08:11:48.079Z,14.6
2019-01-09T08:12:35.719Z,14.3
2019-01-09T08:13:25.502Z,14.1
2019-01-09T08:14:16.116Z,13.9
2019-01-09T08:15:06.174Z,13.8
2019-01-09T08:15:56.216Z,13.6
2019-01-09T08:16:46.271Z,13.5
2019-01-09T08:17:36.070Z,13.4
2019-01-09T08:18:26.451Z,13.3
2019-01-09T08:19:16.449Z,13.2
2019-01-09T08:20:05.948Z,13.1
2019-01-09T08:21:05.871Z,13
2019-01-09T08:21:46.343Z,12.9
2019-01-09T08:22:36.660Z,12.9
2019-01-09T08:23:26.460Z,12.9
2019-01-09T08:24:16.676Z,13.1
2019-01-09T08:25:06.849Z,13.2
2019-01-09T08:25:56.886Z,13.4
2019-01-09T08:26:46.945Z,13.6
2019-01-09T08:27:37.019Z,13.8
2019-01-09T08:28:26.789Z,13.9
2019-01-09T08:29:17.113Z,14.1
2019-01-09T08:30:07.187Z,14.3
2019-01-09T08:30:57.239Z,14.4
2019-01-09T08:31:47.285Z,14.5
2019-01-09T08:32:37.346Z,14.6
2019-01-09T08:33:26.871Z,14.8
2019-01-09T08:34:17.463Z,14.8
2019-01-09T08:35:07.241Z,14.9
2019-01-09T08:35:57.553Z,14.9
2019-01-09T08:36:47.608Z,14.9
2019-01-09T08:37:37.392Z,14.9
2019-01-09T08:38:27.461Z,14.9
2019-01-09T08:39:17.798Z,14.8
2019-01-09T08:40:07.573Z,14.8
2019-01-09T08:40:57.957Z,14.7
2019-01-09T08:41:47.957Z,14.6
2019-01-09T08:42:38.014Z,14.5
2019-01-09T08:43:27.841Z,14.4
2019-01-09T08:44:17.559Z,14.3
2019-01-09T08:45:08.194Z,14.3
2019-01-09T08:45:57.959Z,14.1
2019-01-09T08:46:48.302Z,14
2019-01-09T08:47:38.372Z,13.8
2019-01-09T08:48:28.129Z,13.7
2019-01-09T08:49:17.921Z,13.5
2019-01-09T08:50:08.525Z,13.4
2019-01-09T08:50:58.557Z,13.3
2019-01-09T08:51:48.354Z,13.1
2019-01-09T08:52:38.794Z,13
2019-01-09T08:53:28.469Z,12.9
2019-01-09T08:54:18.810Z,12.9
2019-01-09T08:55:08.857Z,12.8
2019-01-09T08:55:58.906Z,12.8
2019-01-09T08:56:48.673Z,12.7
2019-01-09T08:57:38.746Z,12.7
2019-01-09T08:58:29.093Z,12.6
2019-01-09T08:59:18.581Z,12.6
2019-01-09T09:00:09.190Z,12.5
2019-01-09T09:00:58.980Z,12.4
2019-01-09T09:16:55.292Z,10.9
2019-01-09T09:17:45.258Z,10.8
2019-01-09T09:18:35.383Z,10.7
2019-01-09T09:19:25.729Z,10.6
2019-01-09T09:20:15.544Z,10.6
2019-01-09T09:21:05.820Z,10.4
2019-01-09T09:21:55.878Z,10.4
2019-01-09T09:22:45.635Z,10.3
2019-01-09T09:23:35.969Z,10.3
2019-01-09T09:24:25.839Z,10.2
2019-01-09T09:25:15.530Z,10.1
2019-01-09T09:26:06.137Z,10
2019-01-09T09:26:55.922Z,9.9
2019-01-09T09:27:45.702Z,9.8
2019-01-09T09:28:36.036Z,9.6
2019-01-09T09:29:26.362Z,9.5
2019-01-09T09:30:16.143Z,9.4
2019-01-09T09:31:06.238Z,9.3
2019-01-09T09:31:56.536Z,9.2
2019-01-09T09:32:46.117Z,9.1
2019-01-09T09:33:35.642Z,9.1
2019-01-09T09:34:26.212Z,9
2019-01-09T09:35:16.769Z,9
2019-01-09T09:36:06.260Z,8.9
2019-01-09T09:36:56.863Z,8.9
2019-01-09T09:37:46.668Z,8.9
2019-01-09T09:38:36.763Z,8.8
2019-01-09T09:39:27.059Z,8.8
2019-01-09T09:40:16.801Z,8.7
2019-01-09T09:41:07.136Z,8.6
2019-01-09T09:41:56.371Z,8.6
2019-01-09T09:42:46.991Z,8.5
2019-01-09T09:43:37.058Z,8.4
2019-01-09T09:44:27.383Z,8.4
2019-01-09T09:45:17.430Z,8.3
2019-01-09T09:46:07.484Z,8.3
2019-01-09T09:46:57.540Z,8.3
2019-01-09T09:47:47.330Z,8.2
2019-01-09T09:48:37.368Z,8.1
2019-01-09T09:49:27.710Z,8.1
2019-01-09T09:50:17.781Z,8
2019-01-09T09:51:07.270Z,7.9
2019-01-09T09:51:57.602Z,7.9
2019-01-09T09:52:47.396Z,7.8
2019-01-09T09:53:37.430Z,7.8
2019-01-09T09:54:28.051Z,7.8
2019-01-09T09:55:18.095Z,7.8
2019-01-09T09:56:07.882Z,7.8
2019-01-09T09:56:57.930Z,7.8
2019-01-09T09:57:47.992Z,7.8
2019-01-09T09:58:38.045Z,7.8
2019-01-09T09:59:28.379Z,7.8
2019-01-09T10:00:17.880Z,7.8
2019-01-09T10:01:08.483Z,7.8
2019-01-09T10:01:58.535Z,7.8
2019-01-09T10:02:48.101Z,7.8
2019-01-09T10:03:38.660Z,7.8
2019-01-09T10:04:28.428Z,7.8
2019-01-09T10:05:18.797Z,7.8
2019-01-09T10:06:08.267Z,7.8
2019-01-09T10:06:58.869Z,7.9
2019-01-09T10:07:48.369Z,7.9
2019-01-09T10:08:38.976Z,7.9
2019-01-09T10:09:29.034Z,8
2019-01-09T10:10:19.097Z,8.1
2019-01-09T10:11:08.933Z,8.1
2019-01-09T10:11:59.210Z,8.2
2019-01-09T10:12:48.719Z,8.2
2019-01-09T10:13:39.031Z,8.3
2019-01-09T10:14:28.822Z,8.3
2019-01-09T10:15:19.421Z,8.4
2019-01-09T10:16:09.209Z,8.4
2019-01-09T10:16:58.981Z,8.5
2019-01-09T10:17:49.598Z,8.6
2019-01-09T10:18:39.370Z,8.6
2019-01-09T10:19:29.426Z,8.7
2019-01-09T10:20:19.209Z,8.7
2019-01-09T10:21:09.553Z,8.8
2019-01-09T10:21:59.874Z,8.8
2019-01-09T10:22:49.939Z,8.8
2019-01-09T10:23:39.706Z,8.9
2019-01-09T10:24:30.031Z,8.9
2019-01-09T10:25:19.818Z,8.9
2019-01-09T10:26:09.590Z,9
2019-01-09T10:27:00.036Z,9
2019-01-09T10:27:50.280Z,9
2019-01-09T10:28:40.318Z,9
2019-01-09T10:29:30.083Z,9
2019-01-09T10:30:19.878Z,9.1
2019-01-09T10:31:10.206Z,9.1
2019-01-09T10:32:00.977Z,9.1
2019-01-09T10:32:50.633Z,9.1
2019-01-09T10:33:40.390Z,9.1
2019-01-09T10:34:30.712Z,9.1
2019-01-09T10:35:20.863Z,9.2
2019-01-09T10:36:10.600Z,9.2
2019-01-09T10:37:00.325Z,9.2
2019-01-09T10:37:50.940Z,9.3
2019-01-09T10:38:40.717Z,9.3
2019-01-09T10:39:31.040Z,9.3
2019-01-09T10:40:21.103Z,9.3
2019-01-09T10:41:11.162Z,9.3
2019-01-09T10:42:00.925Z,9.3
2019-01-09T10:42:50.720Z,9.3
2019-01-09T10:43:41.035Z,9.3
2019-01-09T10:44:31.367Z,9.4
2019-01-09T10:45:21.444Z,9.4
2019-01-09T10:46:11.539Z,9.4
2019-01-09T10:47:01.267Z,9.4
2019-01-09T10:47:51.665Z,9.4
2019-01-09T10:48:41.379Z,9.3
2019-01-09T10:49:31.709Z,9.4
2019-01-09T10:50:21.780Z,9.4
2019-01-09T10:51:11.552Z,9.3
2019-01-09T10:52:01.697Z,9.3
2019-01-09T10:52:51.934Z,9.3
2019-01-09T10:53:41.986Z,9.3
2019-01-09T10:54:31.766Z,9.3
2019-01-09T10:55:22.107Z,9.3
2019-01-09T10:56:12.144Z,9.2
2019-01-09T10:57:01.939Z,9.2
2019-01-09T10:57:51.994Z,9.2
2019-01-09T10:58:42.314Z,9.1
2019-01-09T10:59:32.089Z,9.1
2019-01-09T11:00:22.433Z,9.1
2019-01-09T11:01:11.916Z,9
2019-01-09T11:02:02.559Z,9
2019-01-09T11:02:52.323Z,9
2019-01-09T11:03:42.661Z,8.9
2019-01-09T11:04:32.519Z,8.9
2019-01-09T11:05:22.768Z,8.9
2019-01-09T11:06:15.026Z,8.8
2019-01-09T11:07:02.875Z,8.8
2019-01-09T11:07:52.750Z,8.7
2019-01-09T11:08:48.995Z,8.7
2019-01-09T11:09:32.764Z,8.6
2019-01-09T11:10:23.093Z,8.6
2019-01-09T11:11:13.138Z,8.5
2019-01-09T11:12:02.930Z,8.4
2019-01-09T11:12:53.256Z,8.4
2019-01-09T11:13:43.316Z,8.3
2019-01-09T11:14:33.100Z,8.3
2019-01-09T11:15:23.453Z,8.2
2019-01-09T11:16:12.948Z,8.1
2019-01-09T11:17:03.535Z,8.1
2019-01-09T11:17:53.327Z,7.9
2019-01-09T11:18:43.132Z,7.9
2019-01-09T11:19:33.438Z,7.8
2019-01-09T11:20:23.213Z,7.7
2019-01-09T11:21:13.817Z,7.6
2019-01-09T11:22:03.899Z,7.5
2019-01-09T11:22:53.935Z,7.4
2019-01-09T11:23:43.425Z,7.4
2019-01-09T11:24:34.037Z,7.3
2019-01-09T11:25:24.094Z,7.3
2019-01-09T11:26:15.910Z,7.2
2019-01-09T11:27:04.382Z,7.1
2019-01-09T11:27:53.724Z,7.1
2019-01-09T11:28:44.422Z,7
2019-01-09T11:29:34.382Z,6.9
2019-01-09T11:30:24.462Z,6.9
2019-01-09T11:31:14.479Z,6.8
2019-01-09T11:32:04.559Z,6.8
2019-01-09T11:32:53.867Z,6.7
2019-01-09T11:33:44.108Z,6.6
2019-01-09T11:34:34.704Z,6.6
2019-01-09T11:35:24.765Z,6.5
2019-01-09T11:36:14.809Z,6.4
2019-01-09T11:37:04.871Z,6.4
2019-01-09T11:37:55.159Z,6.3
2019-01-09T11:38:44.704Z,6.3
2019-01-09T11:39:34.766Z,6.2
2019-01-09T11:40:24.829Z,6.1
2019-01-09T11:41:14.616Z,6.1
2019-01-09T11:42:05.206Z,6
2019-01-09T11:42:55.271Z,5.9
2019-01-09T11:43:45.316Z,5.9
2019-01-09T11:44:35.098Z,5.9
2019-01-09T11:45:25.161Z,5.8
2019-01-09T11:46:14.931Z,5.8
2019-01-09T11:47:05.538Z,5.7
2019-01-09T11:47:55.221Z,5.7
2019-01-09T11:48:45.384Z,5.6
2019-01-09T11:49:35.441Z,5.6
2019-01-09T11:50:25.758Z,5.6
2019-01-09T11:51:15.856Z,5.5
2019-01-09T11:52:05.601Z,5.4
2019-01-09T11:52:55.928Z,5.4
2019-01-09T11:53:45.975Z,5.3
2019-01-09T11:54:35.766Z,5.3
2019-01-09T11:55:26.203Z,5.3
2019-01-09T11:56:16.149Z,5.2
2019-01-09T11:57:05.670Z,5.2
2019-01-09T11:57:55.985Z,5.1
2019-01-09T11:58:46.033Z,5.1
2019-01-09T11:59:36.176Z,5.1
2019-01-09T12:00:26.155Z,4.9
2019-01-09T12:01:16.208Z,4.9
2019-01-09T12:02:06.535Z,4.9
2019-01-09T12:02:56.610Z,4.8
2019-01-09T12:03:46.645Z,4.8
2019-01-09T12:04:36.592Z,4.8
2019-01-09T12:05:26.482Z,4.7
2019-01-09T12:06:16.598Z,4.6
2019-01-09T12:07:06.870Z,4.6
2019-01-09T12:07:56.919Z,4.6
2019-01-09T12:08:46.977Z,4.6
2019-01-09T12:09:36.750Z,4.5
2019-01-09T12:10:32.230Z,4.4
2019-01-09T12:11:16.876Z,4.4
2019-01-09T12:12:07.232Z,4.4
2019-01-09T12:12:56.979Z,4.4
2019-01-09T12:13:47.039Z,4.3
2019-01-09T12:14:37.097Z,4.3
2019-01-09T12:15:27.432Z,4.3
2019-01-09T12:16:17.489Z,4.2
2019-01-09T12:17:07.549Z,4.2
2019-01-09T12:17:57.317Z,4.1
2019-01-09T12:18:47.651Z,4.1
2019-01-09T12:19:37.697Z,4.1
2019-01-09T12:20:27.764Z,4.1